Cropper, Kentucky
Current Conditions -  °F | °C
As of 8:53 AM on Sunday 23 Nov 2014 (Local Time) from KFFT Reporting Station
Broken Clouds Broken Clouds  
Wind Chill: 51°   Ceiling: 7000
Heat Index: 51°   Visibility: 10mi
Dew Point: 38°   Wind: 6mph
Humidity: 61%   Direction: 150°SSE
Pressure: 29.95"   Gusts: NA
Location:  38.369°N, 85.0622°W
Report Text: KFFT 231353Z AUTO 15005KT 10SM SCT055 BKN070 11/03 A2995 RMK AO2 SLP142 T01060033
Loading
Personal Weather Stations






























Interactive Weather Map New forecast layout! Learn more

10-Day Weather Forecast

Advertisements
Track Severe Weather on mobile